Time;durP1;ratioP1;P1;durP2;ratioP2;P2;SDS_P1;SDS_P2;PMS_P1;PMS_P2;Temp;Humidity;BMP_temperature;BMP_pressure;BME280_temperature;BME280_humidity;BME280_pressure;Samples;Min_cycle;Max_cycle;Signal;HPM_P1;HPM_P2
2022/07/03 00:02:23;;;;;;;;;;;;;;;;;;5069376;28;47923;-81
2022/07/03 00:04:49;;;;;;;;;;;;;;;;;;5073836;28;48559;-80
2022/07/03 00:07:15;;;;;;;;;;;;;;;;;;5072214;28;43288;-81
2022/07/03 00:09:45;;;;;;;;;;;;;;;;;;5074539;28;47859;-81
2022/07/03 00:12:12;;;;;;;;;;;;;;;;;;5073407;28;44664;-81
2022/07/03 00:14:38;;;;;;;;;;;;;;;;;;5065678;28;46732;-82
2022/07/03 00:17:04;;;;;;;;;;;;;;;;;;5053162;28;49618;-80
2022/07/03 00:19:31;;;;;;;;;;;;;;;;;;5069581;28;42631;-81
2022/07/03 00:21:57;;;;;;;;;;;;;;;;;;5057885;28;46411;-80
2022/07/03 00:24:24;;;;;;;;;;;;;;;;;;5065713;28;49855;-81
2022/07/03 00:26:50;;;;;;;;;;;;;;;;;;5059799;28;44863;-81
2022/07/03 00:29:16;;;;;;;;;;;;;;;;;;5075395;28;46389;-81
2022/07/03 00:31:43;;;;;;;;;;;;;;;;;;5064633;28;45909;-82
2022/07/03 00:34:09;;;;;;;;;;;;;;;;;;5084368;28;45103;-82
2022/07/03 00:36:36;;;;;;;;;;;;;;;;;;5080625;28;47305;-81
2022/07/03 00:39:02;;;;;;;;;;;;;;;;;;5076596;28;43944;-81
2022/07/03 00:41:28;;;;;;;;;;;;;;;;;;5068799;28;44564;-81
2022/07/03 00:43:54;;;;;;;;;;;;;;;;;;5074390;28;47171;-81
2022/07/03 00:46:21;;;;;;;;;;;;;;;;;;5074114;28;42243;-81
2022/07/03 00:48:47;;;;;;;;;;;;;;;;;;5078251;28;44759;-80
2022/07/03 00:51:13;;;;;;;;;;;;;;;;;;5071238;28;45371;-81
2022/07/03 00:53:43;;;;;;;;;;;;;;;;;;5070232;28;43699;-81
2022/07/03 00:56:10;;;;;;;;;;;;;;;;;;5078518;28;48831;-81
2022/07/03 00:58:36;;;;;;;;;;;;;;;;;;5077343;28;43029;-81
2022/07/03 01:01:02;;;;;;;;;;;;;;;;;;5077932;28;46034;-81
2022/07/03 01:03:29;;;;;;;;;;;;;;;;;;5082235;28;45382;-81
2022/07/03 01:05:55;;;;;;;;;;;;;;;;;;5078496;28;44813;-82
2022/07/03 01:08:22;;;;;;;;;;;;;;;;;;5078743;28;46210;-80
2022/07/03 01:10:48;;;;;;;;;;;;;;;;;;5074786;28;48447;-81
2022/07/03 01:13:14;;;;;;;;;;;;;;;;;;5072235;28;42144;-82
2022/07/03 01:15:41;;;;;;;;;;;;;;;;;;5078802;28;48136;-81
2022/07/03 01:18:07;;;;;;;;;;;;;;;;;;5076562;28;42131;-81
2022/07/03 01:20:33;;;;;;;;;;;;;;;;;;5077194;28;44731;-81
2022/07/03 01:22:59;;;;;;;;;;;;;;;;;;5073163;28;46865;-81
2022/07/03 01:25:26;;;;;;;;;;;;;;;;;;5066633;28;44357;-81
2022/07/03 01:27:52;;;;;;;;;;;;;;;;;;5078246;28;44675;-81
2022/07/03 01:30:18;;;;;;;;;;;;;;;;;;5081528;28;48803;-82
2022/07/03 01:32:44;;;;;;;;;;;;;;;;;;5077761;28;45603;-82
2022/07/03 01:35:11;;;;;;;;;;;;;;;;;;5065348;28;44677;-81
2022/07/03 01:37:37;;;;;;;;;;;;;;;;;;5070931;28;34486;-81
2022/07/03 01:40:03;;;;;;;;;;;;;;;;;;5073449;28;45670;-81
2022/07/03 01:42:30;;;;;;;;;;;;;;;;;;5070745;28;45640;-81
2022/07/03 01:44:56;;;;;;;;;;;;;;;;;;5066243;28;45152;-80
2022/07/03 01:47:22;;;;;;;;;;;;;;;;;;5071564;28;48954;-81
2022/07/03 01:49:53;;;;;;;;;;;;;;;;;;5064616;28;47120;-81
2022/07/03 01:52:19;;;;;;;;;;;;;;;;;;5060836;28;43773;-81
2022/07/03 01:55:06;;;;;;;;;;;;;;;;;;5069836;28;19932;-80
2022/07/03 01:57:32;;;;;;;;;;;;;;;;;;5069674;28;44721;-80
2022/07/03 01:59:58;;;;;;;;;;;;;;;;;;5069561;28;46401;-82
2022/07/03 02:02:25;;;;;;;;;;;;;;;;;;5067965;28;46863;-80
2022/07/03 02:04:51;;;;;;;;;;;;;;;;;;5074818;28;40984;-81
2022/07/03 02:07:18;;;;;;;;;;;;;;;;;;5071964;28;46731;-82
2022/07/03 02:09:44;;;;;;;;;;;;;;;;;;5064399;28;46936;-80
2022/07/03 02:12:10;;;;;;;;;;;;;;;;;;5068921;28;43296;-82
2022/07/03 02:14:36;;;;;;;;;;;;;;;;;;5074890;28;49249;-81
2022/07/03 02:17:03;;;;;;;;;;;;;;;;;;5078307;28;48237;-82
2022/07/03 02:19:29;;;;;;;;;;;;;;;;;;5076101;28;42397;-82
2022/07/03 02:21:55;;;;;;;;;;;;;;;;;;5076032;28;46487;-80
2022/07/03 02:24:22;;;;;;;;;;;;;;;;;;5076662;28;43332;-81
2022/07/03 02:26:48;;;;;;;;;;;;;;;;;;5077977;28;47955;-82
2022/07/03 02:29:14;;;;;;;;;;;;;;;;;;5077093;28;49561;-82
2022/07/03 02:31:40;;;;;;;;;;;;;;;;;;5078482;28;43766;-82
2022/07/03 02:34:07;;;;;;;;;;;;;;;;;;5079426;28;46432;-81
2022/07/03 02:36:33;;;;;;;;;;;;;;;;;;5077802;28;47620;-81
2022/07/03 02:39:00;;;;;;;;;;;;;;;;;;5076887;28;43689;-81
2022/07/03 02:41:26;;;;;;;;;;;;;;;;;;5074592;28;47815;-81
2022/07/03 02:43:52;;;;;;;;;;;;;;;;;;5077994;28;43371;-81
2022/07/03 02:49:04;;;;;;;;;;;;;;;;;;5079407;28;45281;-81
2022/07/03 02:51:30;;;;;;;;;;;;;;;;;;5078007;28;42120;-81
2022/07/03 02:53:58;;;;;;;;;;;;;;;;;;5073425;28;48085;-81
2022/07/03 02:56:25;;;;;;;;;;;;;;;;;;5079853;28;49634;-81
2022/07/03 02:58:51;;;;;;;;;;;;;;;;;;5068612;28;45680;-82
2022/07/03 03:01:17;;;;;;;;;;;;;;;;;;5077338;28;44684;-81
2022/07/03 03:03:44;;;;;;;;;;;;;;;;;;5078616;28;48268;-81
2022/07/03 03:06:10;;;;;;;;;;;;;;;;;;5080693;28;49393;-80
2022/07/03 03:08:41;;;;;;;;;;;;;;;;;;5077832;28;49324;-80
2022/07/03 03:11:08;;;;;;;;;;;;;;;;;;5074046;28;46294;-82
2022/07/03 03:13:34;;;;;;;;;;;;;;;;;;5079270;28;44582;-80
2022/07/03 03:16:00;;;;;;;;;;;;;;;;;;5073684;28;48738;-81
2022/07/03 03:18:27;;;;;;;;;;;;;;;;;;5076701;28;42210;-81
2022/07/03 03:20:55;;;;;;;;;;;;;;;;;;5075930;28;48484;-82
2022/07/03 03:23:21;;;;;;;;;;;;;;;;;;5077694;28;48956;-81
2022/07/03 03:25:47;;;;;;;;;;;;;;;;;;5075352;28;45334;-80
2022/07/03 03:28:13;;;;;;;;;;;;;;;;;;5079293;28;45764;-82
2022/07/03 03:30:40;;;;;;;;;;;;;;;;;;5075993;28;43354;-81
2022/07/03 03:33:09;;;;;;;;;;;;;;;;;;5078510;28;45034;-82
2022/07/03 03:35:35;;;;;;;;;;;;;;;;;;5078008;28;48361;-81
2022/07/03 03:38:02;;;;;;;;;;;;;;;;;;5075369;28;42430;-81
2022/07/03 03:40:28;;;;;;;;;;;;;;;;;;5076551;28;45089;-82
2022/07/03 03:42:54;;;;;;;;;;;;;;;;;;5073888;28;45909;-82
2022/07/03 03:45:21;;;;;;;;;;;;;;;;;;5068591;28;46536;-80
2022/07/03 03:47:47;;;;;;;;;;;;;;;;;;5063503;28;45434;-80
2022/07/03 03:50:13;;;;;;;;;;;;;;;;;;5063427;28;43926;-80
2022/07/03 03:52:39;;;;;;;;;;;;;;;;;;5065727;28;46200;-80
2022/07/03 03:55:06;;;;;;;;;;;;;;;;;;5065224;28;49101;-80
2022/07/03 03:57:32;;;;;;;;;;;;;;;;;;5062831;28;43956;-80
2022/07/03 03:59:58;;;;;;;;;;;;;;;;;;5064756;28;47496;-80
2022/07/03 04:02:24;;;;;;;;;;;;;;;;;;5064746;28;47952;-80
2022/07/03 04:04:51;;;;;;;;;;;;;;;;;;5066410;28;41864;-80
2022/07/03 04:07:17;;;;;;;;;;;;;;;;;;5062569;28;45958;-80
2022/07/03 04:09:44;;;;;;;;;;;;;;;;;;5063931;28;43160;-81
2022/07/03 04:12:11;;;;;;;;;;;;;;;;;;5056498;28;46687;-81
2022/07/03 04:14:37;;;;;;;;;;;;;;;;;;5062158;28;47260;-80
2022/07/03 04:17:04;;;;;;;;;;;;;;;;;;5063674;28;44203;-80
2022/07/03 04:19:30;;;;;;;;;;;;;;;;;;5064559;28;46413;-80
2022/07/03 04:21:56;;;;;;;;;;;;;;;;;;5063707;28;47887;-80
2022/07/03 04:24:22;;;;;;;;;;;;;;;;;;5061425;28;42062;-81
2022/07/03 04:26:49;;;;;;;;;;;;;;;;;;5064634;28;46321;-80
2022/07/03 04:29:15;;;;;;;;;;;;;;;;;;5061407;28;48001;-80
2022/07/03 04:31:41;;;;;;;;;;;;;;;;;;5065486;28;47534;-80
2022/07/03 04:34:07;;;;;;;;;;;;;;;;;;5060822;28;46631;-80
2022/07/03 04:36:34;;;;;;;;;;;;;;;;;;5060837;28;42077;-80
2022/07/03 04:39:00;;;;;;;;;;;;;;;;;;5063952;28;43940;-80
2022/07/03 04:41:26;;;;;;;;;;;;;;;;;;5061583;28;48009;-80
2022/07/03 04:43:52;;;;;;;;;;;;;;;;;;5063326;28;43200;-80
2022/07/03 04:46:21;;;;;;;;;;;;;;;;;;5063980;28;47526;-80
2022/07/03 04:48:47;;;;;;;;;;;;;;;;;;5061710;28;46004;-80
2022/07/03 04:51:13;;;;;;;;;;;;;;;;;;5063224;28;44826;-80
2022/07/03 04:53:40;;;;;;;;;;;;;;;;;;5063664;28;49301;-80
2022/07/03 04:56:06;;;;;;;;;;;;;;;;;;5066124;28;43727;-80
2022/07/03 04:58:33;;;;;;;;;;;;;;;;;;5058368;28;47314;-80
2022/07/03 05:00:59;;;;;;;;;;;;;;;;;;5061972;28;45842;-80
2022/07/03 05:03:25;;;;;;;;;;;;;;;;;;5067091;28;43430;-80
2022/07/03 05:05:52;;;;;;;;;;;;;;;;;;5061389;28;49374;-80
2022/07/03 05:08:19;;;;;;;;;;;;;;;;;;5061856;28;48590;-80
2022/07/03 05:10:46;;;;;;;;;;;;;;;;;;5059509;28;45014;-80
2022/07/03 05:13:12;;;;;;;;;;;;;;;;;;5056711;28;47535;-80
2022/07/03 05:15:38;;;;;;;;;;;;;;;;;;5061551;28;41981;-81
2022/07/03 05:18:05;;;;;;;;;;;;;;;;;;5062661;28;46272;-81
2022/07/03 05:20:31;;;;;;;;;;;;;;;;;;5060114;28;45461;-80
2022/07/03 05:22:57;;;;;;;;;;;;;;;;;;5060240;28;44798;-80
2022/07/03 05:25:23;;;;;;;;;;;;;;;;;;5062581;28;46399;-80
2022/07/03 05:27:50;;;;;;;;;;;;;;;;;;5066458;28;45507;-80
2022/07/03 05:30:16;;;;;;;;;;;;;;;;;;5060119;28;43715;-80
2022/07/03 05:32:42;;;;;;;;;;;;;;;;;;5058611;28;44924;-80
2022/07/03 05:35:08;;;;;;;;;;;;;;;;;;5062977;28;48142;-80
2022/07/03 05:37:35;;;;;;;;;;;;;;;;;;5064790;28;49199;-80
2022/07/03 05:40:01;;;;;;;;;;;;;;;;;;5061596;28;45654;-80
2022/07/03 05:42:27;;;;;;;;;;;;;;;;;;5060537;28;42139;-80
2022/07/03 05:44:54;;;;;;;;;;;;;;;;;;5065790;28;46334;-80
2022/07/03 05:47:20;;;;;;;;;;;;;;;;;;5065122;28;45819;-81
2022/07/03 05:49:47;;;;;;;;;;;;;;;;;;5059613;28;42837;-80
2022/07/03 05:52:13;;;;;;;;;;;;;;;;;;5064236;28;45029;-80
2022/07/03 05:54:39;;;;;;;;;;;;;;;;;;5065256;28;46952;-80
2022/07/03 05:57:06;;;;;;;;;;;;;;;;;;5068916;28;46266;-80
2022/07/03 05:59:32;;;;;;;;;;;;;;;;;;5065740;28;46357;-80
2022/07/03 06:01:58;;;;;;;;;;;;;;;;;;5064455;28;43528;-80
2022/07/03 06:04:24;;;;;;;;;;;;;;;;;;5066251;28;45670;-80
2022/07/03 06:06:54;;;;;;;;;;;;;;;;;;5065906;28;45560;-80
2022/07/03 06:09:20;;;;;;;;;;;;;;;;;;5064387;28;42621;-80
2022/07/03 06:11:47;;;;;;;;;;;;;;;;;;5059511;28;47309;-81
2022/07/03 06:14:13;;;;;;;;;;;;;;;;;;5067361;28;49861;-80
2022/07/03 06:16:40;;;;;;;;;;;;;;;;;;5055699;28;41967;-80
2022/07/03 06:19:06;;;;;;;;;;;;;;;;;;5056890;28;45867;-80
2022/07/03 06:21:33;;;;;;;;;;;;;;;;;;5068694;28;44617;-80
2022/07/03 06:24:02;;;;;;;;;;;;;;;;;;5063175;28;46431;-80
2022/07/03 06:26:29;;;;;;;;;;;;;;;;;;5063705;28;47043;-80
2022/07/03 06:28:55;;;;;;;;;;;;;;;;;;5054417;28;43366;-80
2022/07/03 06:31:21;;;;;;;;;;;;;;;;;;5056566;28;47474;-80
2022/07/03 06:33:48;;;;;;;;;;;;;;;;;;5065351;28;51157;-80
2022/07/03 06:36:14;;;;;;;;;;;;;;;;;;5069543;28;44712;-80
2022/07/03 06:38:40;;;;;;;;;;;;;;;;;;5067729;28;45095;-80
2022/07/03 06:41:06;;;;;;;;;;;;;;;;;;5069056;28;43718;-80
2022/07/03 06:43:33;;;;;;;;;;;;;;;;;;5061550;28;44997;-80
2022/07/03 06:45:59;;;;;;;;;;;;;;;;;;5052085;28;47100;-80
2022/07/03 06:48:25;;;;;;;;;;;;;;;;;;5047953;28;44904;-80
2022/07/03 06:50:51;;;;;;;;;;;;;;;;;;5047460;28;46273;-80
2022/07/03 06:53:18;;;;;;;;;;;;;;;;;;5058737;28;47408;-80
2022/07/03 06:55:44;;;;;;;;;;;;;;;;;;5063615;28;46501;-79
2022/07/03 06:58:10;;;;;;;;;;;;;;;;;;5057382;28;44720;-80
2022/07/03 07:00:38;;;;;;;;;;;;;;;;;;5062245;28;49184;-80
2022/07/03 07:03:04;;;;;;;;;;;;;;;;;;5061108;28;46448;-81
2022/07/03 07:05:31;;;;;;;;;;;;;;;;;;5065893;28;47601;-81
2022/07/03 07:07:57;;;;;;;;;;;;;;;;;;5066175;28;45633;-80
2022/07/03 07:10:26;;;;;;;;;;;;;;;;;;5060734;28;45786;-80
2022/07/03 07:12:52;;;;;;;;;;;;;;;;;;5062502;28;45509;-80
2022/07/03 07:15:18;;;;;;;;;;;;;;;;;;5063855;28;44063;-80
2022/07/03 07:17:45;;;;;;;;;;;;;;;;;;5065051;28;47498;-80
2022/07/03 07:20:11;;;;;;;;;;;;;;;;;;5060059;28;44998;-81
2022/07/03 07:22:37;;;;;;;;;;;;;;;;;;5065488;28;44028;-80
2022/07/03 07:25:03;;;;;;;;;;;;;;;;;;5065125;28;48131;-80
2022/07/03 07:27:30;;;;;;;;;;;;;;;;;;5066210;28;43553;-80
2022/07/03 07:29:56;;;;;;;;;;;;;;;;;;5063392;28;46250;-80
2022/07/03 07:32:22;;;;;;;;;;;;;;;;;;5059988;28;45384;-80
2022/07/03 07:34:49;;;;;;;;;;;;;;;;;;5052435;28;42799;-80
2022/07/03 07:37:15;;;;;;;;;;;;;;;;;;5061921;28;46171;-80
2022/07/03 07:39:44;;;;;;;;;;;;;;;;;;5061278;28;48763;-80
2022/07/03 07:42:11;;;;;;;;;;;;;;;;;;5055926;28;45713;-80
2022/07/03 07:44:38;;;;;;;;;;;;;;;;;;5062966;28;46007;-78
2022/07/03 07:47:04;;;;;;;;;;;;;;;;;;5056986;28;43348;-79
2022/07/03 07:49:30;;;;;;;;;;;;;;;;;;5053903;28;46414;-79
2022/07/03 07:51:57;;;;;;;;;;;;;;;;;;5058038;28;48357;-79
2022/07/03 07:54:25;;;;;;;;;;;;;;;;;;5060548;28;43721;-79
2022/07/03 07:56:51;;;;;;;;;;;;;;;;;;5061240;28;47546;-78
2022/07/03 07:59:17;;;;;;;;;;;;;;;;;;5064781;28;46275;-80
2022/07/03 08:07:14;;;;;;;;;;;;;;;;;;5060333;28;44771;-78
2022/07/03 08:09:40;;;;;;;;;;;;;;;;;;5065744;28;46592;-78
2022/07/03 08:12:06;;;;;;;;;;;;;;;;;;5064065;28;47042;-76
2022/07/03 08:14:33;;;;;;;;;;;;;;;;;;5060352;28;41990;-79
2022/07/03 08:16:59;;;;;;;;;;;;;;;;;;5061117;28;46279;-78
2022/07/03 08:19:25;;;;;;;;;;;;;;;;;;5065332;28;49436;-78
2022/07/03 08:21:52;;;;;;;;;;;;;;;;;;5060644;28;46524;-78
2022/07/03 08:24:18;;;;;;;;;;;;;;;;;;5067052;28;46390;-78
2022/07/03 08:26:44;;;;;;;;;;;;;;;;;;5061243;28;47012;-77
2022/07/03 08:29:11;;;;;;;;;;;;;;;;;;5068768;28;44575;-78
2022/07/03 08:31:37;;;;;;;;;;;;;;;;;;5066534;28;46857;-78
2022/07/03 08:34:04;;;;;;;;;;;;;;;;;;5061330;28;44028;-77
2022/07/03 08:36:30;;;;;;;;;;;;;;;;;;5062009;28;46447;-77
2022/07/03 08:38:59;;;;;;;;;;;;;;;;;;5053841;28;37348;-78
2022/07/03 08:41:25;;;;;;;;;;;;;;;;;;5045715;28;44742;-77
2022/07/03 08:43:52;;;;;;;;;;;;;;;;;;5050705;28;47562;-77
2022/07/03 08:46:18;;;;;;;;;;;;;;;;;;5061808;28;47984;-78
2022/07/03 08:48:45;;;;;;;;;;;;;;;;;;5061983;28;46087;-77
2022/07/03 08:51:11;;;;;;;;;;;;;;;;;;5063206;28;44222;-77
2022/07/03 08:53:37;;;;;;;;;;;;;;;;;;5064996;28;42158;-78
2022/07/03 08:56:03;;;;;;;;;;;;;;;;;;5052048;28;44767;-76
2022/07/03 08:58:30;;;;;;;;;;;;;;;;;;5043427;28;48953;-77
2022/07/03 09:00:56;;;;;;;;;;;;;;;;;;5063556;28;42253;-78
2022/07/03 09:03:22;;;;;;;;;;;;;;;;;;5065156;28;46214;-78
2022/07/03 09:05:49;;;;;;;;;;;;;;;;;;5063379;28;46770;-76
2022/07/03 09:08:16;;;;;;;;;;;;;;;;;;5062380;28;43533;-77
2022/07/03 09:10:42;;;;;;;;;;;;;;;;;;5059579;28;45740;-77
2022/07/03 09:13:08;;;;;;;;;;;;;;;;;;5056716;28;44782;-77
2022/07/03 09:15:35;;;;;;;;;;;;;;;;;;5063186;28;44517;-77
2022/07/03 09:18:01;;;;;;;;;;;;;;;;;;5061141;28;45948;-78
2022/07/03 09:20:27;;;;;;;;;;;;;;;;;;5057596;28;43729;-78
2022/07/03 09:22:54;;;;;;;;;;;;;;;;;;5064194;28;46149;-77
2022/07/03 09:25:20;;;;;;;;;;;;;;;;;;5066800;28;48095;-77
2022/07/03 09:27:46;;;;;;;;;;;;;;;;;;5065912;28;43013;-77
2022/07/03 09:30:12;;;;;;;;;;;;;;;;;;5062573;28;43553;-78
2022/07/03 09:32:39;;;;;;;;;;;;;;;;;;5057105;28;46764;-77
2022/07/03 09:35:06;;;;;;;;;;;;;;;;;;5058710;28;44949;-78
2022/07/03 09:37:33;;;;;;;;;;;;;;;;;;5064535;28;47987;-77
2022/07/03 09:39:59;;;;;;;;;;;;;;;;;;5060832;28;42516;-77
2022/07/03 09:42:25;;;;;;;;;;;;;;;;;;5058224;28;45750;-77
2022/07/03 09:44:52;;;;;;;;;;;;;;;;;;5063791;28;46780;-78
2022/07/03 09:47:18;;;;;;;;;;;;;;;;;;5063506;28;43732;-77
2022/07/03 09:49:45;;;;;;;;;;;;;;;;;;5066690;28;47508;-77
2022/07/03 09:52:11;;;;;;;;;;;;;;;;;;5066875;28;46024;-78
2022/07/03 09:54:37;;;;;;;;;;;;;;;;;;5056911;28;44805;-79
2022/07/03 09:57:04;;;;;;;;;;;;;;;;;;5064289;28;46738;-77
2022/07/03 09:59:30;;;;;;;;;;;;;;;;;;5061836;28;41216;-74
2022/07/03 10:01:56;;;;;;;;;;;;;;;;;;5059516;28;48843;-80
2022/07/03 10:04:23;;;;;;;;;;;;;;;;;;5061188;28;48132;-78
2022/07/03 10:06:49;;;;;;;;;;;;;;;;;;5063003;28;44738;-75
2022/07/03 10:09:16;;;;;;;;;;;;;;;;;;5062571;28;44471;-77
2022/07/03 10:11:43;;;;;;;;;;;;;;;;;;5066178;28;45136;-74
2022/07/03 10:14:09;;;;;;;;;;;;;;;;;;5061660;28;42336;-76
2022/07/03 10:16:35;;;;;;;;;;;;;;;;;;5064639;28;48457;-77
2022/07/03 10:19:02;;;;;;;;;;;;;;;;;;5068874;28;42535;-78
2022/07/03 10:21:28;;;;;;;;;;;;;;;;;;5070855;28;45747;-77
2022/07/03 10:23:54;;;;;;;;;;;;;;;;;;5068121;28;46632;-77
2022/07/03 10:26:20;;;;;;;;;;;;;;;;;;5066890;28;44647;-78
2022/07/03 10:28:47;;;;;;;;;;;;;;;;;;5068380;28;44788;-78
2022/07/03 10:31:13;;;;;;;;;;;;;;;;;;5067573;28;47106;-77
2022/07/03 10:33:39;;;;;;;;;;;;;;;;;;5068739;28;43644;-77
2022/07/03 10:36:06;;;;;;;;;;;;;;;;;;5067528;28;47963;-77
2022/07/03 10:38:33;;;;;;;;;;;;;;;;;;5065746;28;42019;-76
2022/07/03 10:46:29;;;;;;;;;;;;;;;;;;5063279;28;42532;-77
2022/07/03 10:48:55;;;;;;;;;;;;;;;;;;5068965;28;45025;-78
2022/07/03 10:51:21;;;;;;;;;;;;;;;;;;5057016;28;46988;-78
2022/07/03 10:53:48;;;;;;;;;;;;;;;;;;5054061;28;43052;-77
2022/07/03 10:56:14;;;;;;;;;;;;;;;;;;5063240;28;45820;-78
2022/07/03 10:58:41;;;;;;;;;;;;;;;;;;5063390;28;45815;-79
2022/07/03 11:01:07;;;;;;;;;;;;;;;;;;5062966;28;44347;-79
2022/07/03 11:03:33;;;;;;;;;;;;;;;;;;5067921;28;48793;-79
2022/07/03 11:05:59;;;;;;;;;;;;;;;;;;5066954;28;44837;-79
2022/07/03 11:08:27;;;;;;;;;;;;;;;;;;5052814;28;46305;-78
2022/07/03 11:11:54;;;;;;;;;;;;;;;;;;5061074;28;46279;-78
2022/07/03 11:13:40;;;;;;;;;;;;;;;;;;5056210;28;40999;-79
2022/07/03 11:16:06;;;;;;;;;;;;;;;;;;5055537;28;45158;-77
2022/07/03 11:18:33;;;;;;;;;;;;;;;;;;5057173;28;48403;-78
2022/07/03 11:20:59;;;;;;;;;;;;;;;;;;5067964;28;44025;-78
2022/07/03 11:23:25;;;;;;;;;;;;;;;;;;5054640;28;44271;-78
2022/07/03 11:25:52;;;;;;;;;;;;;;;;;;5061293;28;44724;-78
2022/07/03 11:28:18;;;;;;;;;;;;;;;;;;5058999;28;46698;-79
2022/07/03 11:30:55;;;;;;;;;;;;;;;;;;5053951;28;45771;-81
2022/07/03 11:33:21;;;;;;;;;;;;;;;;;;5063849;28;41561;-78
2022/07/03 11:35:48;;;;;;;;;;;;;;;;;;5066478;28;46139;-79
2022/07/03 11:38:14;;;;;;;;;;;;;;;;;;5064049;28;47232;-80
2022/07/03 11:40:41;;;;;;;;;;;;;;;;;;5063799;28;46936;-79
2022/07/03 11:43:07;;;;;;;;;;;;;;;;;;5060182;28;47754;-79
2022/07/03 11:45:33;;;;;;;;;;;;;;;;;;5052137;28;43909;-81
2022/07/03 11:48:00;;;;;;;;;;;;;;;;;;5060343;28;44693;-82
2022/07/03 11:50:26;;;;;;;;;;;;;;;;;;5063178;28;49854;-81
2022/07/03 11:52:52;;;;;;;;;;;;;;;;;;5060423;28;43746;-80
2022/07/03 11:55:18;;;;;;;;;;;;;;;;;;5065208;28;44803;-81
2022/07/03 11:57:45;;;;;;;;;;;;;;;;;;5062379;28;47081;-80
2022/07/03 12:00:11;;;;;;;;;;;;;;;;;;5059955;28;44668;-80
2022/07/03 12:02:37;;;;;;;;;;;;;;;;;;5057899;28;47147;-80
2022/07/03 12:05:04;;;;;;;;;;;;;;;;;;5043821;28;34842;-82
2022/07/03 12:07:30;;;;;;;;;;;;;;;;;;5058678;28;45721;-80
2022/07/03 12:09:56;;;;;;;;;;;;;;;;;;5055345;28;47037;-79
2022/07/03 12:12:23;;;;;;;;;;;;;;;;;;5065370;28;44942;-80
2022/07/03 12:14:49;;;;;;;;;;;;;;;;;;5066816;28;46159;-80
2022/07/03 12:17:16;;;;;;;;;;;;;;;;;;5065028;28;47087;-81
2022/07/03 12:19:42;;;;;;;;;;;;;;;;;;5044384;28;44796;-80
2022/07/03 12:22:08;;;;;;;;;;;;;;;;;;5059644;28;47778;-81
2022/07/03 12:24:35;;;;;;;;;;;;;;;;;;5065319;28;47257;-82
2022/07/03 12:27:04;;;;;;;;;;;;;;;;;;5061056;28;47115;-83
2022/07/03 12:29:31;;;;;;;;;;;;;;;;;;5064266;28;48168;-80
2022/07/03 12:31:57;;;;;;;;;;;;;;;;;;5064769;28;44779;-82
2022/07/03 12:34:24;;;;;;;;;;;;;;;;;;5054228;28;44960;-80
2022/07/03 12:36:50;;;;;;;;;;;;;;;;;;5064797;28;46850;-81
2022/07/03 12:39:16;;;;;;;;;;;;;;;;;;5064254;28;43975;-83
2022/07/03 12:41:42;;;;;;;;;;;;;;;;;;5066372;28;46078;-84
2022/07/03 12:44:09;;;;;;;;;;;;;;;;;;5062860;28;46976;-83
2022/07/03 12:46:36;;;;;;;;;;;;;;;;;;5063681;28;44369;-80
2022/07/03 12:49:02;;;;;;;;;;;;;;;;;;5060625;28;45214;-80
2022/07/03 12:51:28;;;;;;;;;;;;;;;;;;5062501;28;42685;-83
2022/07/03 12:53:54;;;;;;;;;;;;;;;;;;5052904;28;45665;-80
2022/07/03 12:56:21;;;;;;;;;;;;;;;;;;5042884;28;46903;-80
2022/07/03 13:01:33;;;;;;;;;;;;;;;;;;5063076;28;46718;-81
2022/07/03 13:04:00;;;;;;;;;;;;;;;;;;5060297;28;47997;-82
2022/07/03 13:06:26;;;;;;;;;;;;;;;;;;5062830;28;42667;-81
2022/07/03 13:08:53;;;;;;;;;;;;;;;;;;5065887;28;46293;-81
2022/07/03 13:11:19;;;;;;;;;;;;;;;;;;5059297;28;42981;-82
2022/07/03 13:13:46;;;;;;;;;;;;;;;;;;5065295;28;46777;-81
2022/07/03 13:16:13;;;;;;;;;;;;;;;;;;5063813;28;46163;-81
2022/07/03 13:18:39;;;;;;;;;;;;;;;;;;5047746;28;44582;-86
2022/07/03 13:21:05;;;;;;;;;;;;;;;;;;5062538;28;47710;-81
2022/07/03 13:23:32;;;;;;;;;;;;;;;;;;5061459;28;47969;-80
2022/07/03 13:25:58;;;;;;;;;;;;;;;;;;5050844;28;43598;-80
2022/07/03 13:28:24;;;;;;;;;;;;;;;;;;5056597;28;45567;-81
2022/07/03 13:30:50;;;;;;;;;;;;;;;;;;5044362;28;45447;-81
2022/07/03 13:33:17;;;;;;;;;;;;;;;;;;5052644;28;47502;-81
2022/07/03 13:35:44;;;;;;;;;;;;;;;;;;5063191;28;48321;-82
2022/07/03 13:38:10;;;;;;;;;;;;;;;;;;5063984;28;41558;-84
2022/07/03 13:40:39;;;;;;;;;;;;;;;;;;5064951;28;46422;-81
2022/07/03 13:43:05;;;;;;;;;;;;;;;;;;5063894;28;48161;-81
2022/07/03 13:45:32;;;;;;;;;;;;;;;;;;5063299;28;45222;-80
2022/07/03 13:47:58;;;;;;;;;;;;;;;;;;5062712;28;44930;-82
2022/07/03 13:50:24;;;;;;;;;;;;;;;;;;5055662;28;48165;-83
2022/07/03 13:52:51;;;;;;;;;;;;;;;;;;5061495;28;43405;-81
2022/07/03 13:55:17;;;;;;;;;;;;;;;;;;5059541;28;47984;-80
2022/07/03 13:57:43;;;;;;;;;;;;;;;;;;5063728;28;45270;-83
2022/07/03 14:00:10;;;;;;;;;;;;;;;;;;5063660;28;46223;-81
2022/07/03 14:02:38;;;;;;;;;;;;;;;;;;5061489;28;48101;-85
2022/07/03 14:05:08;;;;;;;;;;;;;;;;;;5063519;28;41690;-81
2022/07/03 14:07:35;;;;;;;;;;;;;;;;;;5065263;28;47584;-80
2022/07/03 14:10:01;;;;;;;;;;;;;;;;;;5061887;28;49503;-81
2022/07/03 14:12:27;;;;;;;;;;;;;;;;;;5067546;28;45439;-85
2022/07/03 14:14:53;;;;;;;;;;;;;;;;;;5066561;28;46685;-84
2022/07/03 14:17:20;;;;;;;;;;;;;;;;;;5065275;28;45323;-82
2022/07/03 14:19:46;;;;;;;;;;;;;;;;;;5066502;28;45633;-81
2022/07/03 14:22:12;;;;;;;;;;;;;;;;;;5065972;28;45033;-80
2022/07/03 14:24:39;;;;;;;;;;;;;;;;;;5065304;28;47068;-82
2022/07/03 14:32:35;;;;;;;;;;;;;;;;;;5062898;28;44434;-81
2022/07/03 14:35:02;;;;;;;;;;;;;;;;;;5053652;28;47383;-79
2022/07/03 14:37:28;;;;;;;;;;;;;;;;;;5048870;28;45346;-80
2022/07/03 14:39:54;;;;;;;;;;;;;;;;;;5064888;28;46508;-83
2022/07/03 14:42:22;;;;;;;;;;;;;;;;;;5063350;28;47277;-79
2022/07/03 14:44:48;;;;;;;;;;;;;;;;;;5062885;28;45184;-81
2022/07/03 14:47:14;;;;;;;;;;;;;;;;;;5062051;28;46610;-80
2022/07/03 14:49:42;;;;;;;;;;;;;;;;;;5064552;28;46402;-79
2022/07/03 14:52:08;;;;;;;;;;;;;;;;;;5062519;28;44868;-84
2022/07/03 14:54:35;;;;;;;;;;;;;;;;;;5064846;28;44728;-79
2022/07/03 14:57:01;;;;;;;;;;;;;;;;;;5065483;28;47013;-79
2022/07/03 14:59:29;;;;;;;;;;;;;;;;;;5064391;28;44571;-82
2022/07/03 15:01:56;;;;;;;;;;;;;;;;;;5062364;28;47625;-81
2022/07/03 15:04:22;;;;;;;;;;;;;;;;;;5061482;28;43921;-81
2022/07/03 15:06:49;;;;;;;;;;;;;;;;;;5063247;28;45898;-80
2022/07/03 15:09:15;;;;;;;;;;;;;;;;;;5059953;28;45652;-79
2022/07/03 15:14:26;;;;;;;;;;;;;;;;;;5057621;28;45758;-81
2022/07/03 15:16:53;;;;;;;;;;;;;;;;;;5062570;28;45772;-82
2022/07/03 15:19:21;;;;;;;;;;;;;;;;;;5062354;28;43336;-81
2022/07/03 15:21:47;;;;;;;;;;;;;;;;;;5063101;28;46852;-81
2022/07/03 15:24:13;;;;;;;;;;;;;;;;;;5066648;28;43478;-78
2022/07/03 15:26:42;;;;;;;;;;;;;;;;;;5063247;28;44951;-79
2022/07/03 15:29:18;;;;;;;;;;;;;;;;;;5054781;28;44995;-79
2022/07/03 15:31:46;;;;;;;;;;;;;;;;;;5062699;28;43793;-78
2022/07/03 15:34:12;;;;;;;;;;;;;;;;;;5057608;28;45127;-79
2022/07/03 15:36:39;;;;;;;;;;;;;;;;;;5065618;28;45762;-81
2022/07/03 15:39:05;;;;;;;;;;;;;;;;;;5065190;28;44831;-80
2022/07/03 15:41:33;;;;;;;;;;;;;;;;;;5062446;28;50056;-79
2022/07/03 15:44:00;;;;;;;;;;;;;;;;;;5062228;28;43029;-78
2022/07/03 15:46:26;;;;;;;;;;;;;;;;;;5061368;28;45168;-80
2022/07/03 15:48:53;;;;;;;;;;;;;;;;;;5064133;28;46995;-78
2022/07/03 15:51:21;;;;;;;;;;;;;;;;;;5063106;28;41580;-80
2022/07/03 15:53:48;;;;;;;;;;;;;;;;;;5063870;28;46659;-78
2022/07/03 15:56:15;;;;;;;;;;;;;;;;;;5061648;28;48015;-78
2022/07/03 15:58:42;;;;;;;;;;;;;;;;;;5061235;28;43824;-78
2022/07/03 16:03:54;;;;;;;;;;;;;;;;;;5054413;28;45086;-79
2022/07/03 16:06:20;;;;;;;;;;;;;;;;;;5061526;28;45293;-78
2022/07/03 16:08:47;;;;;;;;;;;;;;;;;;5059664;28;48890;-78
2022/07/03 16:11:14;;;;;;;;;;;;;;;;;;5062835;28;45727;-79
2022/07/03 16:13:40;;;;;;;;;;;;;;;;;;5060311;28;48118;-81
2022/07/03 16:16:07;;;;;;;;;;;;;;;;;;5065121;28;48076;-79
2022/07/03 16:18:33;;;;;;;;;;;;;;;;;;5050101;28;44900;-81
2022/07/03 16:21:00;;;;;;;;;;;;;;;;;;5064856;28;47641;-82
2022/07/03 16:23:26;;;;;;;;;;;;;;;;;;5061922;28;47387;-80
2022/07/03 16:25:52;;;;;;;;;;;;;;;;;;5060536;28;46420;-79
2022/07/03 16:28:18;;;;;;;;;;;;;;;;;;5056686;28;47989;-81
2022/07/03 16:30:45;;;;;;;;;;;;;;;;;;5056724;28;43753;-80
2022/07/03 16:33:11;;;;;;;;;;;;;;;;;;5063267;28;46049;-79
2022/07/03 16:35:37;;;;;;;;;;;;;;;;;;5050820;28;48371;-79
2022/07/03 16:38:03;;;;;;;;;;;;;;;;;;5060705;28;45670;-80
2022/07/03 16:40:30;;;;;;;;;;;;;;;;;;5056690;28;46220;-80
2022/07/03 16:42:56;;;;;;;;;;;;;;;;;;5064666;28;46962;-79
2022/07/03 16:45:22;;;;;;;;;;;;;;;;;;5057751;28;42089;-79
2022/07/03 16:47:49;;;;;;;;;;;;;;;;;;5048463;28;48332;-77
2022/07/03 16:50:15;;;;;;;;;;;;;;;;;;5047612;28;43245;-77
2022/07/03 16:52:41;;;;;;;;;;;;;;;;;;5055345;28;46712;-77
2022/07/03 16:55:09;;;;;;;;;;;;;;;;;;5058744;28;49925;-77
2022/07/03 16:57:35;;;;;;;;;;;;;;;;;;5060741;28;42215;-80
2022/07/03 17:00:03;;;;;;;;;;;;;;;;;;5065156;28;44319;-77
2022/07/03 17:02:30;;;;;;;;;;;;;;;;;;5062563;28;48114;-77
2022/07/03 17:04:56;;;;;;;;;;;;;;;;;;5054514;28;43912;-78
2022/07/03 17:07:23;;;;;;;;;;;;;;;;;;5062867;28;46411;-77
2022/07/03 17:09:49;;;;;;;;;;;;;;;;;;5059355;28;44492;-78